Time;durP1;ratioP1;P1;durP2;ratioP2;P2;SDS_P1;SDS_P2;PMS_P1;PMS_P2;Temp;Humidity;BMP_temperature;BMP_pressure;BME280_temperature;BME280_humidity;BME280_pressure;Samples;Min_cycle;Max_cycle;Signal;HPM_P1;HPM_P2
2022/10/24 00:00:17;;;;;;;;;;;;;;;10.83;100.00;99613.28;1710316;83;20231;-84
2022/10/24 00:05:26;;;;;;;;;;;;;;;10.83;100.00;99604.07;1692297;80;20252;-82
2022/10/24 00:07:53;;;;;;;;;;;;;;;10.82;100.00;99607.60;1712773;83;20267;-84
2022/10/24 00:10:19;;;;;;;;;;;;;;;10.82;100.00;99602.34;1714608;83;21144;-85
2022/10/24 00:12:47;;;;;;;;;;;;;;;10.81;100.00;99601.92;1714383;83;20238;-84
2022/10/24 00:15:14;;;;;;;;;;;;;;;10.78;100.00;99595.86;1714655;83;20235;-86
2022/10/24 00:17:42;;;;;;;;;;;;;;;10.77;100.00;99590.17;1714594;83;20474;-84
2022/10/24 00:20:12;;;;;;;;;;;;;;;10.78;100.00;99592.38;1713760;83;20809;-85
2022/10/24 00:22:38;;;;;;;;;;;;;;;10.80;100.00;99583.96;1714596;83;21879;-83
2022/10/24 00:25:06;;;;;;;;;;;;;;;10.78;100.00;99587.96;1714044;83;20199;-84
2022/10/24 00:27:35;;;;;;;;;;;;;;;10.77;100.00;99593.27;1714314;83;20215;-85
2022/10/24 00:30:03;;;;;;;;;;;;;;;10.73;100.00;99601.73;1714470;83;20176;-85
2022/10/24 00:32:31;;;;;;;;;;;;;;;10.69;100.00;99610.66;1714840;83;20197;-85
2022/10/24 00:34:57;;;;;;;;;;;;;;;10.61;100.00;99616.62;1714759;83;21833;-86
2022/10/24 00:37:25;;;;;;;;;;;;;;;10.52;100.00;99609.02;1714063;83;20181;-84
2022/10/24 00:39:53;;;;;;;;;;;;;;;10.44;100.00;99609.30;1715012;83;20173;-83
2022/10/24 00:42:19;;;;;;;;;;;;;;;10.38;100.00;99607.70;1714817;83;20537;-85
2022/10/24 00:44:46;;;;;;;;;;;;;;;10.34;100.00;99612.67;1714539;83;20226;-81
2022/10/24 00:47:16;;;;;;;;;;;;;;;10.31;100.00;99619.30;1714459;83;20243;-85
2022/10/24 00:49:59;;;;;;;;;;;;;;;10.28;100.00;99622.03;1713678;83;20627;-86
2022/10/24 00:52:25;;;;;;;;;;;;;;;10.26;100.00;99622.53;1713077;83;20235;-86
2022/10/24 00:54:53;;;;;;;;;;;;;;;10.24;100.00;99619.10;1714588;83;20156;-84
2022/10/24 00:57:23;;;;;;;;;;;;;;;10.21;100.00;99615.25;1714691;83;20263;-85
2022/10/24 00:59:52;;;;;;;;;;;;;;;10.20;100.00;99614.41;1714708;83;20995;-83
2022/10/24 01:02:20;;;;;;;;;;;;;;;10.20;100.00;99614.83;1714248;83;20259;-84
2022/10/24 01:04:47;;;;;;;;;;;;;;;10.20;100.00;99616.14;1714268;83;20240;-84
2022/10/24 01:07:29;;;;;;;;;;;;;;;10.19;100.00;99615.30;1714769;83;20196;-86
2022/10/24 01:10:18;;;;;;;;;;;;;;;10.19;100.00;99617.08;1713381;83;20223;-85
2022/10/24 01:12:49;;;;;;;;;;;;;;;10.18;100.00;99611.40;1714617;83;21576;-86
2022/10/24 01:15:31;;;;;;;;;;;;;;;10.20;100.00;99611.77;1714766;83;20224;-85
2022/10/24 01:18:12;;;;;;;;;;;;;;;10.22;100.00;99618.27;1715047;83;20235;-86
2022/10/24 01:21:03;;;;;;;;;;;;;;;10.26;100.00;99617.74;1714590;83;20667;-79
2022/10/24 01:23:45;;;;;;;;;;;;;;;10.27;100.00;99613.75;1714769;83;20290;-83
2022/10/24 01:26:20;;;;;;;;;;;;;;;10.30;100.00;99607.52;1714788;83;21099;-84
2022/10/24 01:28:54;;;;;;;;;;;;;;;10.29;100.00;99607.09;1714594;83;20199;-86
2022/10/24 01:31:25;;;;;;;;;;;;;;;10.27;100.00;99604.55;1714535;83;20591;-86
2022/10/24 01:33:54;;;;;;;;;;;;;;;10.25;100.00;99606.34;1696534;83;20569;-87
2022/10/24 01:36:24;;;;;;;;;;;;;;;10.23;100.00;99614.28;1714431;83;20176;-86
2022/10/24 01:38:58;;;;;;;;;;;;;;;10.20;100.00;99607.83;1713884;83;21122;-85
2022/10/24 01:41:26;;;;;;;;;;;;;;;10.21;100.00;99609.98;1714479;83;20247;-85
2022/10/24 01:43:55;;;;;;;;;;;;;;;10.21;100.00;99607.36;1714579;83;20226;-86
2022/10/24 01:46:27;;;;;;;;;;;;;;;10.21;100.00;99607.36;1714418;83;20223;-83
2022/10/24 01:49:02;;;;;;;;;;;;;;;10.21;100.00;99611.30;1694874;83;20591;-85
2022/10/24 01:51:28;;;;;;;;;;;;;;;10.21;100.00;99615.25;1714622;83;20849;-84
2022/10/24 01:53:54;;;;;;;;;;;;;;;10.19;100.00;99609.19;1694684;83;20247;-86
2022/10/24 01:56:24;;;;;;;;;;;;;;;10.18;100.00;99620.60;1715094;83;20189;-86
2022/10/24 01:58:51;;;;;;;;;;;;;;;10.16;100.00;99615.85;1714711;83;20244;-86
2022/10/24 02:01:19;;;;;;;;;;;;;;;10.16;100.00;99615.39;1714766;83;20216;-87
2022/10/24 02:03:49;;;;;;;;;;;;;;;10.14;100.00;99617.67;1714025;83;20675;-86
2022/10/24 02:06:18;;;;;;;;;;;;;;;10.13;100.00;99614.63;1712852;83;20235;-87
2022/10/24 02:08:46;;;;;;;;;;;;;;;10.11;100.00;99616.45;1712582;83;20552;-84
2022/10/24 02:11:13;;;;;;;;;;;;;;;10.12;100.00;99619.47;1712458;83;20180;-86
2022/10/24 02:13:59;;;;;;;;;;;;;;;10.11;100.00;99613.82;1712561;83;20230;-87
2022/10/24 02:16:27;;;;;;;;;;;;;;;10.10;100.00;99616.03;1712235;83;20640;-85
2022/10/24 02:18:54;;;;;;;;;;;;;;;10.08;100.00;99614.77;1712446;83;20283;-86
2022/10/24 02:21:52;;;;;;;;;;;;;;;10.06;100.00;99616.59;1712548;83;20239;-85
2022/10/24 02:24:21;;;;;;;;;;;;;;;10.04;100.00;99617.95;1712488;83;20812;-84
2022/10/24 02:26:56;;;;;;;;;;;;;;;10.04;100.00;99617.95;1712379;83;20587;-83
2022/10/24 02:29:25;;;;;;;;;;;;;;;10.06;100.00;99620.99;1712680;83;21117;-85
2022/10/24 02:31:53;;;;;;;;;;;;;;;10.07;100.00;99609.55;1712799;83;20541;-83
2022/10/24 02:34:20;;;;;;;;;;;;;;;10.08;100.00;99610.81;1712523;83;20235;-83
2022/10/24 02:36:47;;;;;;;;;;;;;;;10.05;100.00;99618.80;1712426;83;20168;-85
2022/10/24 02:39:13;;;;;;;;;;;;;;;10.02;100.00;99625.02;1692616;83;20181;-85
2022/10/24 02:41:40;;;;;;;;;;;;;;;10.02;100.00;99619.77;1712513;83;21210;-85
2022/10/24 02:44:06;;;;;;;;;;;;;;;10.04;100.00;99616.62;1712464;83;20466;-82
2022/10/24 02:46:33;;;;;;;;;;;;;;;10.07;100.00;99622.27;1712465;83;20251;-85
2022/10/24 02:49:00;;;;;;;;;;;;;;;10.10;100.00;99626.09;1711906;83;20168;-84
2022/10/24 02:51:30;;;;;;;;;;;;;;;10.13;100.00;99631.25;1712480;83;20232;-83
2022/10/24 02:53:57;;;;;;;;;;;;;;;10.18;100.00;99629.34;1712917;83;21154;-84
2022/10/24 02:56:24;;;;;;;;;;;;;;;10.23;100.00;99642.35;1712449;83;21085;-85
2022/10/24 02:58:50;;;;;;;;;;;;;;;10.26;100.00;99642.72;1712663;83;20267;-84
2022/10/24 03:01:18;;;;;;;;;;;;;;;10.28;100.00;99640.44;1712381;83;20466;-84
2022/10/24 03:03:45;;;;;;;;;;;;;;;10.31;100.00;99644.75;1712413;83;20584;-77
2022/10/24 03:06:11;;;;;;;;;;;;;;;10.32;100.00;99651.75;1712792;83;21071;-85
2022/10/24 03:08:37;;;;;;;;;;;;;;;10.30;100.00;99657.02;1710438;83;20239;-84
2022/10/24 03:11:03;;;;;;;;;;;;;;;10.29;100.00;99654.44;1710911;84;20246;-83
2022/10/24 03:13:31;;;;;;;;;;;;;;;10.28;100.00;99654.90;1710491;83;20164;-84
2022/10/24 03:15:57;;;;;;;;;;;;;;;10.30;100.00;99659.66;1710684;83;20231;-83
2022/10/24 03:18:25;;;;;;;;;;;;;;;10.31;100.00;99656.13;1710568;83;20231;-85
2022/10/24 03:20:53;;;;;;;;;;;;;;;10.34;100.00;99653.44;1710139;84;20235;-86
2022/10/24 03:23:20;;;;;;;;;;;;;;;10.36;100.00;99659.50;1710517;83;20283;-82
2022/10/24 03:25:47;;;;;;;;;;;;;;;10.41;100.00;99654.95;1709988;84;20160;-85
2022/10/24 03:28:14;;;;;;;;;;;;;;;10.44;100.00;99647.87;1710394;84;20220;-80
2022/10/24 03:30:40;;;;;;;;;;;;;;;10.47;100.00;99646.46;1710554;84;21835;-85
2022/10/24 03:33:06;;;;;;;;;;;;;;;10.48;100.00;99645.56;1710541;84;20517;-84
2022/10/24 03:35:33;;;;;;;;;;;;;;;10.46;100.00;99648.70;1710669;84;20235;-83
2022/10/24 03:38:00;;;;;;;;;;;;;;;10.44;100.00;99647.87;1688520;84;20235;-85
2022/10/24 03:40:26;;;;;;;;;;;;;;;10.40;100.00;99650.59;1710448;84;20275;-84
2022/10/24 03:42:52;;;;;;;;;;;;;;;10.39;100.00;99652.83;1710619;84;21093;-84
2022/10/24 03:45:19;;;;;;;;;;;;;;;10.37;100.00;99655.97;1710498;84;20235;-85
2022/10/24 03:47:45;;;;;;;;;;;;;;;10.34;100.00;99650.80;1710386;84;20185;-85
2022/10/24 03:50:12;;;;;;;;;;;;;;;10.33;100.00;99655.65;1710708;84;20971;-82
2022/10/24 03:52:38;;;;;;;;;;;;;;;10.27;100.00;99654.52;1710478;84;20272;-85
2022/10/24 03:55:05;;;;;;;;;;;;;;;10.26;100.00;99658.04;1710747;84;21092;-83
2022/10/24 03:57:31;;;;;;;;;;;;;;;10.25;100.00;99654.14;1710406;83;20200;-85
2022/10/24 03:59:57;;;;;;;;;;;;;;;10.21;100.00;99661.27;1710604;84;20259;-86
2022/10/24 04:02:24;;;;;;;;;;;;;;;10.20;100.00;99660.84;1710226;83;20259;-86
2022/10/24 04:04:50;;;;;;;;;;;;;;;10.17;100.00;99661.82;1710192;83;20204;-86
2022/10/24 04:07:16;;;;;;;;;;;;;;;10.16;100.00;99660.55;1706089;83;21136;-86
2022/10/24 04:09:43;;;;;;;;;;;;;;;10.16;100.00;99669.75;1703097;84;20510;-85
2022/10/24 04:36:21;;;;;;;;;;;;;;;10.18;100.00;99674.04;1632527;88;20797;-86
2022/10/24 04:38:48;;;;;;;;;;;;;;;10.20;100.00;99679.25;1632855;88;21026;-84
2022/10/24 04:41:14;;;;;;;;;;;;;;;10.19;100.00;99684.12;1632888;88;20956;-85
2022/10/24 04:43:41;;;;;;;;;;;;;;;10.20;100.00;99683.20;1632840;88;20694;-87
2022/10/24 04:46:07;;;;;;;;;;;;;;;10.21;100.00;99683.62;1633052;88;21175;-83
2022/10/24 04:48:34;;;;;;;;;;;;;;;10.20;100.00;99684.52;1632825;88;21172;-85
2022/10/24 04:51:00;;;;;;;;;;;;;;;10.21;100.00;99688.87;1632970;87;20145;-84
2022/10/24 04:53:27;;;;;;;;;;;;;;;10.23;100.00;99694.48;1633353;88;20228;-85
2022/10/24 04:55:53;;;;;;;;;;;;;;;10.25;100.00;99695.75;1633095;87;20228;-86
2022/10/24 04:58:19;;;;;;;;;;;;;;;10.26;100.00;99693.54;1633641;88;20540;-85
2022/10/24 05:00:48;;;;;;;;;;;;;;;10.26;100.00;99693.54;1633212;87;22292;-85
2022/10/24 05:03:17;;;;;;;;;;;;;;;10.27;100.00;99700.53;1633167;88;20189;-84
2022/10/24 05:05:43;;;;;;;;;;;;;;;10.27;100.00;99699.22;1633277;87;20207;-87
2022/10/24 05:08:11;;;;;;;;;;;;;;;10.29;100.00;99701.77;1632964;87;20148;-86
2022/10/24 05:10:37;;;;;;;;;;;;;;;10.29;100.00;99701.77;1633581;88;20215;-84
2022/10/24 05:13:05;;;;;;;;;;;;;;;10.32;100.00;99703.92;1633208;88;20204;-87
2022/10/24 05:15:33;;;;;;;;;;;;;;;10.36;100.00;99705.53;1633070;88;20141;-85
2022/10/24 05:17:59;;;;;;;;;;;;;;;10.39;100.00;99713.33;1633378;87;20228;-86
2022/10/24 05:20:25;;;;;;;;;;;;;;;10.43;100.00;99706.67;1633282;87;20137;-83
2022/10/24 05:22:51;;;;;;;;;;;;;;;10.45;100.00;99707.47;1633385;87;20338;-84
2022/10/24 05:25:18;;;;;;;;;;;;;;;10.49;100.00;99707.77;1633274;87;21049;-87
2022/10/24 05:27:45;;;;;;;;;;;;;;;10.52;100.00;99709.88;1633009;88;20192;-85
2022/10/24 05:30:12;;;;;;;;;;;;;;;10.56;100.00;99715.90;1633212;88;20243;-86
2022/10/24 05:32:39;;;;;;;;;;;;;;;10.59;100.00;99718.41;1633206;87;20145;-86
2022/10/24 05:35:07;;;;;;;;;;;;;;;10.59;100.00;99715.78;1640127;87;20213;-86
2022/10/24 05:37:34;;;;;;;;;;;;;;;10.58;100.00;99716.70;1648854;86;21580;-85
2022/10/24 05:40:01;;;;;;;;;;;;;;;10.58;100.00;99716.24;1649054;87;20175;-86
2022/10/24 05:42:28;;;;;;;;;;;;;;;10.60;100.00;99714.88;1648981;86;20197;-87
2022/10/24 05:44:55;;;;;;;;;;;;;;;10.63;100.00;99713.47;1648947;87;20205;-86
2022/10/24 05:47:22;;;;;;;;;;;;;;;10.62;100.00;99710.42;1649234;87;20229;-84
2022/10/24 05:49:48;;;;;;;;;;;;;;;10.65;100.00;99718.23;1648932;87;21216;-86
2022/10/24 05:52:15;;;;;;;;;;;;;;;10.67;100.00;99717.72;1648838;87;20221;-84
2022/10/24 05:54:42;;;;;;;;;;;;;;;10.68;100.00;99714.19;1648966;85;20236;-86
2022/10/24 05:57:09;;;;;;;;;;;;;;;10.72;100.00;99722.38;1648875;87;20169;-85
2022/10/24 05:59:36;;;;;;;;;;;;;;;10.74;100.00;99719.70;1648973;86;20217;-86
2022/10/24 06:02:03;;;;;;;;;;;;;;;10.75;100.00;99722.28;1648910;85;21753;-87
2022/10/24 06:04:31;;;;;;;;;;;;;;;10.77;100.00;99730.98;1648775;85;20519;-86
2022/10/24 06:06:58;;;;;;;;;;;;;;;10.78;100.00;99720.88;1649141;85;20202;-86
2022/10/24 06:09:26;;;;;;;;;;;;;;;10.82;100.00;99737.89;1648780;86;20447;-82
2022/10/24 06:11:53;;;;;;;;;;;;;;;10.81;100.00;99733.52;1649102;86;20268;-85
2022/10/24 06:14:20;;;;;;;;;;;;;;;10.83;100.00;99727.78;1648964;87;21767;-84
2022/10/24 06:16:47;;;;;;;;;;;;;;;10.85;100.00;99732.53;1648969;87;20171;-85
2022/10/24 06:19:15;;;;;;;;;;;;;;;10.90;100.00;99734.56;1649018;85;20197;-86
2022/10/24 06:21:42;;;;;;;;;;;;;;;10.93;100.00;99738.41;1648783;87;20226;-85
2022/10/24 06:24:09;;;;;;;;;;;;;;;10.95;100.00;99735.27;1649060;86;20273;-86
2022/10/24 06:26:37;;;;;;;;;;;;;;;10.97;100.00;99740.02;1648973;86;21579;-82
2022/10/24 06:29:04;;;;;;;;;;;;;;;10.97;100.00;99740.02;1648985;85;20167;-85
2022/10/24 06:31:30;;;;;;;;;;;;;;;11.00;100.00;99748.29;1649283;87;20230;-86
2022/10/24 06:33:57;;;;;;;;;;;;;;;11.00;100.00;99745.19;1649009;87;20204;-86
2022/10/24 06:36:24;;;;;;;;;;;;;;;11.02;100.00;99743.36;1630127;87;20247;-82
2022/10/24 06:38:50;;;;;;;;;;;;;;;11.02;100.00;99740.73;1641525;87;21286;-87
2022/10/24 06:41:17;;;;;;;;;;;;;;;11.03;100.00;99747.73;1641616;87;20181;-85
2022/10/24 06:43:45;;;;;;;;;;;;;;;11.07;100.00;99746.70;1641456;87;20214;-83
2022/10/24 06:46:13;;;;;;;;;;;;;;;11.12;100.00;99744.77;1641337;87;20248;-85
2022/10/24 06:48:40;;;;;;;;;;;;;;;11.17;100.00;99749.05;1641334;87;20153;-85
2022/10/24 06:51:07;;;;;;;;;;;;;;;11.24;100.00;99754.50;1641352;87;22240;-86
2022/10/24 06:53:34;;;;;;;;;;;;;;;11.30;100.00;99751.67;1641406;87;20189;-85
2022/10/24 06:56:02;;;;;;;;;;;;;;;11.32;100.00;99752.48;1641532;87;20228;-85
2022/10/24 06:58:34;;;;;;;;;;;;;;;11.34;100.00;99755.91;1641342;87;20231;-86
2022/10/24 07:01:09;;;;;;;;;;;;;;;11.36;100.00;99753.23;1641240;87;20522;-86
2022/10/24 07:03:36;;;;;;;;;;;;;;;11.39;100.00;99746.08;1641616;87;20628;-84
2022/10/24 07:06:09;;;;;;;;;;;;;;;11.43;100.00;99748.14;1641452;87;20219;-87
2022/10/24 07:08:36;;;;;;;;;;;;;;;11.45;100.00;99749.83;1640718;87;20596;-86
2022/10/24 07:11:04;;;;;;;;;;;;;;;11.48;100.00;99748.84;1641356;87;20138;-84
2022/10/24 07:13:31;;;;;;;;;;;;;;;11.51;100.00;99755.33;1641450;87;20205;-85
2022/10/24 07:15:59;;;;;;;;;;;;;;;11.52;100.00;99754.44;1641380;87;20220;-86
2022/10/24 07:18:27;;;;;;;;;;;;;;;11.49;100.00;99754.06;1641148;87;20205;-85
2022/10/24 07:20:54;;;;;;;;;;;;;;;11.47;100.00;99755.91;1641775;87;20217;-87
2022/10/24 07:23:21;;;;;;;;;;;;;;;11.45;100.00;99760.37;1641254;87;20170;-86
2022/10/24 07:25:48;;;;;;;;;;;;;;;11.46;100.00;99763.86;1641771;87;20212;-84
2022/10/24 07:28:15;;;;;;;;;;;;;;;11.47;100.00;99759.85;1641343;87;21157;-86
2022/10/24 07:30:42;;;;;;;;;;;;;;;11.50;100.00;99759.75;1641610;87;20190;-85
2022/10/24 07:33:09;;;;;;;;;;;;;;;11.50;100.00;99755.80;1641423;87;20241;-87
2022/10/24 07:35:42;;;;;;;;;;;;;;;11.48;100.00;99753.69;1651683;86;20200;-85
2022/10/24 07:38:08;;;;;;;;;;;;;;;11.49;100.00;99761.12;1667849;86;20145;-83
2022/10/24 07:40:35;;;;;;;;;;;;;;;11.50;100.00;99761.07;1668009;86;21116;-84
2022/10/24 07:43:02;;;;;;;;;;;;;;;11.53;100.00;99763.61;1667550;86;20210;-86
2022/10/24 07:45:31;;;;;;;;;;;;;;;11.56;100.00;99759.13;1667762;86;20237;-86
2022/10/24 07:47:58;;;;;;;;;;;;;;;11.57;100.00;99763.03;1667947;86;20252;-86
2022/10/24 07:50:26;;;;;;;;;;;;;;;11.59;100.00;99758.56;1667790;86;20158;-81
2022/10/24 07:52:52;;;;;;;;;;;;;;;11.63;100.00;99758.00;1668101;86;21106;-86
2022/10/24 07:55:20;;;;;;;;;;;;;;;11.67;100.00;99753.04;1667620;86;20229;-86
2022/10/24 07:57:47;;;;;;;;;;;;;;;11.75;100.00;99750.99;1668172;86;20537;-85
2022/10/24 08:00:15;;;;;;;;;;;;;;;11.80;100.00;99751.69;1667726;86;20212;-86
2022/10/24 08:02:42;;;;;;;;;;;;;;;11.82;100.00;99748.53;1668141;86;20166;-84
2022/10/24 08:05:10;;;;;;;;;;;;;;;11.84;100.00;99754.60;1667838;86;21568;-85
2022/10/24 08:07:37;;;;;;;;;;;;;;;11.87;100.00;99753.65;1667632;86;20142;-85
2022/10/24 08:10:08;;;;;;;;;;;;;;;11.89;100.00;99755.30;1667638;86;20141;-86
2022/10/24 08:12:34;;;;;;;;;;;;;;;11.93;100.00;99760.50;1667736;86;20228;-84
2022/10/24 08:15:03;;;;;;;;;;;;;;;11.94;100.00;99759.59;1667822;86;20169;-86
2022/10/24 08:17:31;;;;;;;;;;;;;;;11.93;100.00;99761.81;1667821;84;20161;-85
2022/10/24 08:19:57;;;;;;;;;;;;;;;11.93;100.00;99759.18;1667976;84;20216;-86
2022/10/24 08:22:23;;;;;;;;;;;;;;;11.94;100.00;99755.64;1667535;84;20477;-87
2022/10/24 08:24:50;;;;;;;;;;;;;;;11.98;100.00;99754.12;1668250;86;20216;-86
2022/10/24 08:27:16;;;;;;;;;;;;;;;12.01;100.00;99758.45;1667747;86;20240;-85
2022/10/24 08:29:43;;;;;;;;;;;;;;;12.05;100.00;99761.36;1667828;86;21986;-85
2022/10/24 08:32:09;;;;;;;;;;;;;;;12.07;100.00;99751.17;1667592;86;20233;-85
2022/10/24 08:34:37;;;;;;;;;;;;;;;12.11;100.00;99754.55;1667710;86;20220;-85
2022/10/24 08:37:03;;;;;;;;;;;;;;;12.13;100.00;99753.17;1636796;86;20236;-84
2022/10/24 08:39:30;;;;;;;;;;;;;;;12.15;100.00;99757.92;1631855;88;20264;-82
2022/10/24 08:41:59;;;;;;;;;;;;;;;12.17;100.00;99752.13;1632266;88;21133;-82
2022/10/24 08:44:38;;;;;;;;;;;;;;;12.20;100.00;99761.25;1631976;86;20632;-87
2022/10/24 08:47:29;;;;;;;;;;;;;;;12.22;100.00;99758.97;1632364;88;20233;-87
2022/10/24 08:50:18;;;;;;;;;;;;;;;12.25;100.00;99762.82;1631970;86;20505;-85
2022/10/24 08:52:50;;;;;;;;;;;;;;;12.26;100.00;99761.88;1632121;86;20202;-86
2022/10/24 08:55:21;;;;;;;;;;;;;;;12.24;100.00;99755.81;1632033;88;21159;-86
2022/10/24 08:57:52;;;;;;;;;;;;;;;12.24;100.00;99757.13;1632126;85;20134;-85
2022/10/24 09:00:24;;;;;;;;;;;;;;;12.29;100.00;99758.28;1631992;88;20652;-82
2022/10/24 09:03:25;;;;;;;;;;;;;;;12.35;100.00;99754.55;1632308;86;20245;-87
2022/10/24 09:05:54;;;;;;;;;;;;;;;12.40;100.00;99760.50;1631995;88;20229;-85
2022/10/24 09:08:53;;;;;;;;;;;;;;;12.44;100.00;99759.48;1631847;88;21180;-87
2022/10/24 09:11:46;;;;;;;;;;;;;;;12.44;100.00;99761.66;1631878;88;20197;-83
2022/10/24 09:14:24;;;;;;;;;;;;;;;12.46;100.00;99762.91;1632468;88;20260;-87
2022/10/24 09:16:57;;;;;;;;;;;;;;;12.45;100.00;99762.50;1632230;85;20189;-86
2022/10/24 09:19:25;;;;;;;;;;;;;;;12.44;100.00;99764.77;1632122;87;20245;-87
2022/10/24 09:21:53;;;;;;;;;;;;;;;12.43;100.00;99774.44;1631985;86;21171;-85
2022/10/24 09:24:44;;;;;;;;;;;;;;;12.41;100.00;99768.36;1632450;88;20206;-86
2022/10/24 09:27:17;;;;;;;;;;;;;;;12.42;100.00;99766.57;1632200;88;20213;-87
2022/10/24 09:29:44;;;;;;;;;;;;;;;12.42;100.00;99767.89;1632485;86;20146;-81
2022/10/24 09:32:16;;;;;;;;;;;;;;;12.41;100.00;99767.05;1632257;88;20522;-87
2022/10/24 09:34:42;;;;;;;;;;;;;;;12.41;100.00;99763.09;1632211;86;21184;-87
2022/10/24 09:37:30;;;;;;;;;;;;;;;12.44;100.00;99760.80;1639016;86;20208;-87
2022/10/24 09:40:24;;;;;;;;;;;;;;;12.48;100.00;99759.75;1641429;87;20204;-87
2022/10/24 09:43:16;;;;;;;;;;;;;;;12.49;100.00;99760.16;1641332;87;20146;-84
2022/10/24 09:45:59;;;;;;;;;;;;;;;12.48;99.74;99755.80;1641272;87;20976;-88
2022/10/24 09:48:29;;;;;;;;;;;;;;;12.52;99.63;99748.61;1641368;87;21129;-86
2022/10/24 09:50:56;;;;;;;;;;;;;;;12.56;99.20;99748.44;1641290;87;20228;-86
2022/10/24 09:53:36;;;;;;;;;;;;;;;12.56;98.50;99756.36;1641326;87;20154;-85
2022/10/24 09:56:14;;;;;;;;;;;;;;;12.55;98.61;99759.91;1641150;87;20224;-86
2022/10/24 09:58:41;;;;;;;;;;;;;;;12.53;98.15;99767.03;1641123;87;20145;-85
2022/10/24 10:01:16;;;;;;;;;;;;;;;12.55;98.44;99761.70;1641288;87;21813;-85
2022/10/24 10:03:43;;;;;;;;;;;;;;;12.58;98.51;99767.70;1641489;87;20212;-84
2022/10/24 10:06:17;;;;;;;;;;;;;;;12.59;98.42;99768.12;1613257;87;20196;-86
2022/10/24 10:08:51;;;;;;;;;;;;;;;12.57;98.24;99770.41;1641505;87;21028;-82
2022/10/24 10:11:25;;;;;;;;;;;;;;;12.56;98.51;99772.20;1641221;87;20205;-84
2022/10/24 10:13:54;;;;;;;;;;;;;;;12.57;98.46;99754.57;1641155;87;21181;-85
2022/10/24 10:16:30;;;;;;;;;;;;;;;12.58;98.54;99753.19;1641232;87;20200;-85
2022/10/24 10:19:18;;;;;;;;;;;;;;;12.60;98.98;99755.78;1641192;87;20212;-85
2022/10/24 10:21:58;;;;;;;;;;;;;;;12.63;98.66;99751.70;1636715;87;20190;-85
2022/10/24 10:24:29;;;;;;;;;;;;;;;12.64;98.79;99753.41;1641091;87;20233;-86
2022/10/24 10:26:55;;;;;;;;;;;;;;;12.62;98.86;99757.45;1641235;87;21216;-85
2022/10/24 10:29:22;;;;;;;;;;;;;;;12.58;99.01;99769.03;1641140;87;20126;-85
2022/10/24 10:31:52;;;;;;;;;;;;;;;12.56;99.34;99766.91;1641149;87;20253;-83
2022/10/24 10:34:34;;;;;;;;;;;;;;;12.56;99.64;99766.91;1641286;87;20537;-86
2022/10/24 10:37:17;;;;;;;;;;;;;;;12.57;99.71;99763.34;1636265;86;20617;-84
2022/10/24 10:40:08;;;;;;;;;;;;;;;12.57;99.98;99767.30;1631958;86;21167;-84
2022/10/24 10:42:56;;;;;;;;;;;;;;;12.55;99.41;99756.42;1632056;88;20201;-86
2022/10/24 10:45:46;;;;;;;;;;;;;;;12.52;100.00;99745.50;1632105;88;20247;-83
2022/10/24 10:48:28;;;;;;;;;;;;;;;12.50;100.00;99740.75;1632453;87;20202;-86
2022/10/24 10:51:23;;;;;;;;;;;;;;;12.52;100.00;99734.95;1626604;88;20213;-85
2022/10/24 10:53:59;;;;;;;;;;;;;;;12.55;100.00;99744.06;1632250;86;21120;-82
2022/10/24 10:56:52;;;;;;;;;;;;;;;12.55;100.00;99741.43;1631097;86;20251;-86
2022/10/24 10:59:36;;;;;;;;;;;;;;;12.56;100.00;99744.95;1631985;86;20163;-84
2022/10/24 11:02:15;;;;;;;;;;;;;;;12.58;100.00;99743.95;1631844;88;20175;-83
2022/10/24 11:04:56;;;;;;;;;;;;;;;12.61;99.42;99755.72;1632128;86;20272;-82
2022/10/24 11:07:26;;;;;;;;;;;;;;;12.60;98.98;99753.14;1632189;86;21866;-82
2022/10/24 11:09:55;;;;;;;;;;;;;;;12.60;99.15;99751.34;1631473;88;20288;-81
2022/10/24 11:12:24;;;;;;;;;;;;;;;12.59;98.79;99745.69;1632252;87;20214;-81
2022/10/24 11:14:57;;;;;;;;;;;;;;;12.57;98.64;99750.14;1632176;88;20182;-79
2022/10/24 11:17:28;;;;;;;;;;;;;;;12.55;98.72;99733.51;1632165;88;20176;-80
2022/10/24 11:20:13;;;;;;;;;;;;;;;12.58;98.59;99741.31;1631999;88;21090;-79
2022/10/24 11:22:43;;;;;;;;;;;;;;;12.62;98.50;99738.97;1631084;88;20236;-81
2022/10/24 11:25:27;;;;;;;;;;;;;;;12.66;98.15;99738.83;1631576;88;20379;-81
2022/10/24 11:28:21;;;;;;;;;;;;;;;12.68;97.76;99746.25;1631480;86;20265;-85
2022/10/24 11:30:53;;;;;;;;;;;;;;;12.69;96.77;99746.62;1631886;88;20225;-86
2022/10/24 11:33:25;;;;;;;;;;;;;;;12.70;96.26;99751.00;1631862;86;21204;-83
2022/10/24 11:36:07;;;;;;;;;;;;;;;12.71;96.19;99745.66;1631793;86;20547;-82
2022/10/24 11:38:37;;;;;;;;;;;;;;;12.72;95.40;99746.04;1631633;87;20216;-84
2022/10/24 11:41:24;;;;;;;;;;;;;;;12.74;94.78;99745.98;1632254;86;20178;-76
2022/10/24 11:43:51;;;;;;;;;;;;;;;12.77;94.96;99744.55;1632265;87;20216;-85
2022/10/24 11:46:19;;;;;;;;;;;;;;;12.82;94.70;99735.98;1631961;85;21124;-81
2022/10/24 11:48:49;;;;;;;;;;;;;;;12.88;93.96;99733.09;1631999;88;20632;-80
2022/10/24 11:51:34;;;;;;;;;;;;;;;12.93;93.64;99736.41;1614300;86;20171;-82
2022/10/24 11:54:06;;;;;;;;;;;;;;;13.00;93.23;99737.87;1630935;88;20469;-81
2022/10/24 11:56:40;;;;;;;;;;;;;;;13.09;92.72;99738.41;1631625;87;20146;-82
2022/10/24 11:59:17;;;;;;;;;;;;;;;13.10;92.29;99737.50;1631283;88;20238;-83
2022/10/24 12:01:56;;;;;;;;;;;;;;;13.11;92.20;99738.77;1631598;88;20143;-81
2022/10/24 12:04:41;;;;;;;;;;;;;;;13.15;91.58;99732.89;1631587;88;20210;-85
2022/10/24 12:07:32;;;;;;;;;;;;;;;13.18;91.55;99727.02;1631877;87;20757;-84
2022/10/24 12:10:28;;;;;;;;;;;;;;;13.23;91.27;99718.90;1631599;88;20851;-83
2022/10/24 12:13:18;;;;;;;;;;;;;;;13.26;91.19;99708.17;1577878;90;21319;-84
2022/10/24 12:16:00;;;;;;;;;;;;;;;13.29;90.85;99705.41;1675899;85;20220;-85
2022/10/24 12:18:30;;;;;;;;;;;;;;;13.33;90.40;99718.93;1675756;85;20266;-85
2022/10/24 12:21:00;;;;;;;;;;;;;;;13.36;89.82;99710.87;1676095;85;20231;-87
2022/10/24 12:23:27;;;;;;;;;;;;;;;13.38;89.96;99711.66;1675624;85;20218;-84
2022/10/24 12:26:17;;;;;;;;;;;;;;;13.43;89.79;99721.16;1676068;85;21137;-87
2022/10/24 12:28:55;;;;;;;;;;;;;;;13.47;89.41;99724.09;1675894;85;20215;-87
2022/10/24 12:31:29;;;;;;;;;;;;;;;13.45;88.46;99723.27;1676163;85;20223;-87
2022/10/24 12:34:18;;;;;;;;;;;;;;;13.40;87.93;99726.14;1678418;85;20414;-86
2022/10/24 12:37:11;;;;;;;;;;;;;;;13.33;87.82;99737.44;1649338;86;20183;-86
2022/10/24 12:39:44;;;;;;;;;;;;;;;13.31;87.80;99744.51;1677131;85;21136;-86
2022/10/24 12:42:15;;;;;;;;;;;;;;;13.28;87.96;99739.38;1680513;84;20234;-84
2022/10/24 12:44:42;;;;;;;;;;;;;;;13.26;88.34;99741.20;1680771;84;20160;-84
2022/10/24 12:47:42;;;;;;;;;;;;;;;13.23;88.57;99736.08;1680561;84;20148;-86
2022/10/24 12:50:26;;;;;;;;;;;;;;;13.20;88.68;99723.83;1680620;85;20239;-87
2022/10/24 12:53:05;;;;;;;;;;;;;;;13.20;89.23;99713.73;1680396;85;22006;-84
2022/10/24 12:55:38;;;;;;;;;;;;;;;13.18;89.54;99706.34;1680684;85;20199;-86
2022/10/24 12:58:25;;;;;;;;;;;;;;;13.14;89.93;99712.66;1680514;85;20165;-85
2022/10/24 13:00:56;;;;;;;;;;;;;;;13.13;90.42;99705.65;1680789;84;20369;-83
2022/10/24 13:03:41;;;;;;;;;;;;;;;13.12;90.53;99699.98;1680529;84;20219;-87
2022/10/24 13:06:18;;;;;;;;;;;;;;;13.11;90.54;99704.86;1641845;86;20736;-85
2022/10/24 13:09:03;;;;;;;;;;;;;;;13.09;90.57;99698.31;1642826;87;20491;-85
2022/10/24 13:11:40;;;;;;;;;;;;;;;13.12;90.76;99698.20;1642724;87;20590;-87
2022/10/24 13:14:26;;;;;;;;;;;;;;;13.18;90.68;99705.88;1642883;87;20237;-85
2022/10/24 13:17:16;;;;;;;;;;;;;;;13.22;90.42;99697.35;1642784;86;20269;-85
2022/10/24 13:19:44;;;;;;;;;;;;;;;13.23;90.17;99696.44;1642739;87;20238;-84
2022/10/24 13:22:28;;;;;;;;;;;;;;;13.22;90.01;99701.31;1643023;87;20480;-85
2022/10/24 13:24:54;;;;;;;;;;;;;;;13.20;89.84;99699.20;1642948;87;20245;-83
2022/10/24 13:27:26;;;;;;;;;;;;;;;13.14;89.99;99695.49;1642938;86;20197;-86